Time;durP1;ratioP1;P1;durP2;ratioP2;P2;SDS_P1;SDS_P2;PMS_P1;PMS_P2;Temp;Humidity;BMP_temperature;BMP_pressure;BME280_temperature;BME280_humidity;BME280_pressure;Samples;Min_cycle;Max_cycle;Signal;HPM_P1;HPM_P2
2023/04/29 00:14:30;;;;;;;8.73;6.13;;;;;;;10.82;59.28;99774.66;30922442;28;97437;-65
2023/04/29 00:29:30;;;;;;;11.43;6.97;;;;;;;10.69;59.77;99777.16;30914766;28;97347;-69
2023/04/29 00:44:31;;;;;;;11.77;7.35;;;;;;;10.60;59.73;99763.06;30916137;28;97105;-68
2023/04/29 00:59:33;;;;;;;15.07;8.23;;;;;;;10.59;60.49;99757.94;30946367;28;97087;-68
2023/04/29 01:14:35;;;;;;;17.77;8.73;;;;;;;10.50;59.74;99754.53;30920446;28;97145;-62
2023/04/29 01:30:23;;;;;;;15.43;8.07;;;;;;;10.39;60.26;99737.13;30930913;28;96675;-62
2023/04/29 01:45:26;;;;;;;15.07;9.77;;;;;;;10.27;61.21;99755.34;30923727;28;96744;-62
2023/04/29 02:00:26;;;;;;;14.97;8.93;;;;;;;10.14;61.37;99763.94;30934965;28;97288;-68
2023/04/29 02:15:27;;;;;;;13.27;8.25;;;;;;;9.98;61.84;99758.72;30926832;28;97289;-62
2023/04/29 02:30:27;;;;;;;16.10;8.00;;;;;;;9.83;62.50;99748.03;30924289;28;96703;-64
2023/04/29 02:45:28;;;;;;;13.32;7.45;;;;;;;9.86;62.36;99737.00;30941492;28;113545;-69
2023/04/29 03:00:29;;;;;;;19.40;6.43;;;;;;;9.88;62.55;99731.50;30926623;28;97665;-68
2023/04/29 03:15:30;;;;;;;17.05;7.15;;;;;;;9.81;62.32;99710.97;30917499;28;96705;-64
2023/04/29 03:30:30;;;;;;;9.27;6.07;;;;;;;9.66;62.70;99702.06;30933827;28;97176;-62
2023/04/29 03:45:30;;;;;;;9.80;6.47;;;;;;;9.26;63.60;99696.81;30979988;28;103752;-62
2023/04/29 04:00:31;;;;;;;9.85;6.05;;;;;;;9.35;64.78;99694.09;30971335;28;104278;-65
2023/04/29 04:15:31;;;;;;;9.15;6.13;;;;;;;9.46;64.49;99705.19;30975160;28;97381;-61
2023/04/29 04:30:34;;;;;;;10.85;7.32;;;;;;;9.52;65.25;99710.81;30977538;28;111157;-63
2023/04/29 04:45:35;;;;;;;11.90;7.23;;;;;;;9.93;65.35;99703.38;30976732;28;97468;-62
2023/04/29 05:00:35;;;;;;;8.47;6.37;;;;;;;10.74;64.88;99700.16;30975104;28;97255;-62
2023/04/29 05:15:36;;;;;;;12.15;6.82;;;;;;;10.97;64.27;99704.56;30975687;28;99542;-62
2023/04/29 05:30:36;;;;;;;10.85;6.65;;;;;;;11.45;63.11;99699.63;30995028;28;97123;-64
2023/04/29 05:45:37;;;;;;;12.43;7.03;;;;;;;12.35;62.61;99707.28;30993390;28;96768;-63
2023/04/29 06:00:38;;;;;;;10.95;6.72;;;;;;;13.36;61.45;99703.34;30963012;28;99680;-65
2023/04/29 06:15:38;;;;;;;12.03;7.13;;;;;;;14.06;59.52;99719.16;30864995;28;96674;-61
2023/04/29 06:30:38;;;;;;;12.57;6.35;;;;;;;13.58;58.89;99727.31;30861376;28;96830;-61
2023/04/29 06:45:39;;;;;;;11.95;7.38;;;;;;;12.95;60.26;99733.59;30862975;28;110068;-61
2023/04/29 07:00:39;;;;;;;13.45;7.65;;;;;;;12.94;61.52;99731.94;30938089;28;111554;-61
2023/04/29 07:15:40;;;;;;;12.70;7.20;;;;;;;12.88;61.50;99732.72;30979278;28;96903;-60
2023/04/29 07:30:41;;;;;;;10.10;7.20;;;;;;;13.01;62.37;99735.47;30983685;28;96809;-60
2023/04/29 07:45:41;;;;;;;10.07;7.13;;;;;;;13.04;62.63;99735.09;30979907;28;96762;-61
2023/04/29 08:00:42;;;;;;;11.23;7.38;;;;;;;13.33;63.18;99746.53;30979372;28;97497;-61
2023/04/29 08:15:42;;;;;;;10.23;7.00;;;;;;;13.52;63.08;99748.50;30978482;28;96723;-66
2023/04/29 08:30:42;;;;;;;16.50;8.95;;;;;;;13.95;62.96;99743.88;30977548;28;97017;-60
2023/04/29 08:45:44;;;;;;;11.57;8.18;;;;;;;14.09;63.21;99766.94;30972742;28;111637;-67
2023/04/29 09:00:45;;;;;;;9.83;6.37;;;;;;;13.88;64.06;99782.16;30972902;28;96617;-66
2023/04/29 09:15:45;;;;;;;11.43;7.75;;;;;;;14.26;65.23;99788.03;30974295;28;96840;-65
2023/04/29 09:30:46;;;;;;;9.93;7.38;;;;;;;15.23;63.66;99796.44;30971841;28;96838;-66
2023/04/29 09:45:47;;;;;;;12.07;8.85;;;;;;;14.62;63.87;99797.50;30970554;28;97501;-63
2023/04/29 10:00:48;;;;;;;9.03;6.93;;;;;;;15.36;64.46;99799.09;30971136;28;97126;-66
2023/04/29 10:16:20;;;;;;;10.43;7.55;;;;;;;15.74;62.84;99805.53;30986031;28;97493;-65
2023/04/29 10:31:21;;;;;;;7.97;4.80;;;;;;;18.61;60.71;99801.81;30988097;28;97003;-59
2023/04/29 10:46:25;;;;;;;8.03;4.03;;;;;;;21.74;52.37;99777.91;30986159;28;96756;-63
2023/04/29 11:01:41;;;;;;;5.13;2.93;;;;;;;22.61;47.25;99777.09;30906993;28;96807;-62
2023/04/29 11:16:52;;;;;;;3.90;2.50;;;;;;;23.95;43.42;99764.97;30859764;28;97534;-63
2023/04/29 11:32:00;;;;;;;3.63;2.50;;;;;;;23.45;41.90;99761.00;30857708;28;96667;-66
2023/04/29 11:47:07;;;;;;;3.27;2.80;;;;;;;24.17;41.79;99767.44;30854985;28;97077;-62
2023/04/29 12:02:11;;;;;;;3.03;1.87;;;;;;;24.59;36.86;99771.00;30852094;28;97043;-62
2023/04/29 12:17:11;;;;;;;4.27;2.63;;;;;;;21.13;40.83;99764.41;30845800;28;96962;-62
2023/04/29 12:32:16;;;;;;;5.38;3.30;;;;;;;18.68;45.58;99769.31;30855377;28;97625;-62
2023/04/29 12:47:16;;;;;;;4.03;2.83;;;;;;;20.27;47.21;99763.66;30851643;28;96759;-62
2023/04/29 13:02:17;;;;;;;3.40;2.03;;;;;;;22.39;45.05;99763.63;30851210;28;96795;-62
2023/04/29 13:17:17;;;;;;;2.37;1.70;;;;;;;23.44;40.37;99745.78;30849857;28;97584;-62
2023/04/29 13:32:20;;;;;;;2.10;1.38;;;;;;;23.74;40.01;99736.06;30851084;28;96733;-63
2023/04/29 13:47:21;;;;;;;2.33;1.67;;;;;;;21.44;41.96;99748.53;30859739;28;97674;-62
2023/04/29 14:02:21;;;;;;;3.57;2.13;;;;;;;21.03;42.95;99745.31;30868180;28;96728;-62
2023/04/29 14:17:22;;;;;;;2.53;1.73;;;;;;;20.37;43.80;99749.47;30867235;28;96725;-62
2023/04/29 14:32:22;;;;;;;2.83;1.70;;;;;;;19.63;45.63;99753.00;30864476;28;113532;-62
2023/04/29 14:47:23;;;;;;;3.75;2.50;;;;;;;18.96;47.02;99753.50;30862376;28;109326;-62
2023/04/29 15:02:23;;;;;;;4.57;2.80;;;;;;;18.40;47.74;99778.09;30862422;28;96739;-62
2023/04/29 15:17:24;;;;;;;4.18;2.78;;;;;;;16.75;52.21;99819.19;30861269;28;96783;-62
2023/04/29 15:32:30;;;;;;;2.63;1.60;;;;;;;15.84;55.99;99838.19;30860474;28;97508;-62
2023/04/29 15:47:30;;;;;;;5.60;3.37;;;;;;;15.47;57.55;99856.63;30857491;28;97819;-62
2023/04/29 16:02:30;;;;;;;4.78;3.20;;;;;;;15.18;59.54;99860.63;30855121;28;111020;-62
2023/04/29 16:17:31;;;;;;;6.90;4.70;;;;;;;15.01;60.98;99881.72;30855688;28;110771;-62
2023/04/29 16:32:31;;;;;;;7.70;5.07;;;;;;;14.44;62.96;99875.84;30855371;28;97682;-62
2023/04/29 16:47:34;;;;;;;9.60;5.10;;;;;;;13.96;64.65;99900.84;30853286;28;96710;-62
2023/04/29 17:02:36;;;;;;;11.10;6.60;;;;;;;13.59;66.08;99906.41;30853418;28;96640;-62
2023/04/29 17:17:36;;;;;;;8.70;5.87;;;;;;;13.47;66.96;99924.84;30857279;28;97462;-62
2023/04/29 17:32:40;;;;;;;5.90;3.92;;;;;;;13.27;67.61;99950.63;30871175;28;96727;-62
2023/04/29 17:47:40;;;;;;;4.60;3.00;;;;;;;12.85;68.13;99975.34;30867490;28;96712;-62
2023/04/29 18:02:41;;;;;;;5.28;3.22;;;;;;;12.60;68.26;99985.59;30866966;28;116333;-62
2023/04/29 18:17:42;;;;;;;7.05;4.72;;;;;;;12.28;68.52;100003.69;30866658;28;96768;-62
2023/04/29 18:32:42;;;;;;;11.47;6.97;;;;;;;12.25;69.59;100021.94;30865522;28;97631;-61
2023/04/29 18:47:43;;;;;;;15.30;9.10;;;;;;;12.11;69.98;100047.59;30863763;28;97654;-62
2023/04/29 19:02:43;;;;;;;21.38;13.07;;;;;;;11.95;70.08;100070.81;30863086;28;96911;-62
2023/04/29 19:17:43;;;;;;;19.20;11.93;;;;;;;11.82;70.78;100084.75;30860610;28;118221;-62
2023/04/29 19:32:45;;;;;;;18.05;11.52;;;;;;;11.80;71.41;100096.63;30859790;28;102600;-62
2023/04/29 19:47:47;;;;;;;21.93;13.43;;;;;;;11.73;71.46;100107.19;30856639;28;97557;-62
2023/04/29 20:02:50;;;;;;;24.77;16.33;;;;;;;11.65;72.14;100112.59;30857322;28;96709;-62
2023/04/29 20:17:50;;;;;;;31.43;17.30;;;;;;;11.52;72.22;100132.69;30854038;28;96943;-62
2023/04/29 20:32:51;;;;;;;26.75;17.17;;;;;;;11.49;71.79;100138.38;30852875;28;96674;-62
2023/04/29 20:47:51;;;;;;;25.85;16.60;;;;;;;11.43;72.19;100144.41;30849418;28;98591;-62
2023/04/29 21:02:51;;;;;;;24.20;15.38;;;;;;;11.38;72.61;100159.28;30852845;28;96699;-62
2023/04/29 21:17:52;;;;;;;22.20;14.85;;;;;;;11.38;72.63;100181.47;30853090;28;115000;-62
2023/04/29 21:32:52;;;;;;;19.45;11.55;;;;;;;11.37;72.17;100203.78;30852096;28;97369;-62
2023/04/29 21:47:54;;;;;;;19.15;12.68;;;;;;;11.30;71.71;100221.50;30851186;28;96935;-62
2023/04/29 22:02:55;;;;;;;19.03;11.30;;;;;;;11.16;71.46;100234.56;30856524;28;97437;-62
2023/04/29 22:17:55;;;;;;;18.63;11.25;;;;;;;11.05;71.97;100244.78;30870154;28;97163;-62
2023/04/29 22:32:56;;;;;;;15.68;9.48;;;;;;;10.86;70.63;100254.00;30868000;28;96712;-62
2023/04/29 22:47:56;;;;;;;15.13;8.50;;;;;;;10.78;70.85;100271.66;30867049;28;96893;-62
2023/04/29 23:02:57;;;;;;;14.75;8.05;;;;;;;10.71;69.41;100281.34;30865479;28;111915;-62
2023/04/29 23:17:57;;;;;;;11.70;7.43;;;;;;;10.65;68.70;100306.81;30863793;28;101545;-62
2023/04/29 23:32:57;;;;;;;12.15;7.18;;;;;;;10.54;67.52;100308.97;30863881;28;96724;-63
2023/04/29 23:47:58;;;;;;;18.33;8.32;;;;;;;10.46;67.70;100310.66;30861380;28;97135;-62
